sensor_id;sensor_type;location;lat;lon;timestamp;P1;durP1;ratioP1;P2;durP2;ratioP2
50301;SDS011;36550;50.472;19.744;2023-06-14T00:01:09;8.30;;;4.80;;
50301;SDS011;36550;50.472;19.744;2023-06-14T00:03:54;8.20;;;5.20;;
50301;SDS011;36550;50.472;19.744;2023-06-14T00:06:39;8.10;;;5.10;;
50301;SDS011;36550;50.472;19.744;2023-06-14T00:09:25;7.20;;;5.20;;
50301;SDS011;36550;50.472;19.744;2023-06-14T00:12:09;6.50;;;4.90;;
50301;SDS011;36550;50.472;19.744;2023-06-14T00:14:53;6.50;;;4.70;;
50301;SDS011;36550;50.472;19.744;2023-06-14T00:17:36;9.10;;;4.80;;
50301;SDS011;36550;50.472;19.744;2023-06-14T00:20:22;7.80;;;5.00;;
50301;SDS011;36550;50.472;19.744;2023-06-14T00:23:06;6.60;;;4.50;;
50301;SDS011;36550;50.472;19.744;2023-06-14T00:25:50;6.80;;;4.70;;
50301;SDS011;36550;50.472;19.744;2023-06-14T00:28:33;5.70;;;4.30;;
50301;SDS011;36550;50.472;19.744;2023-06-14T00:31:18;7.00;;;4.00;;
50301;SDS011;36550;50.472;19.744;2023-06-14T00:34:02;8.40;;;4.40;;
50301;SDS011;36550;50.472;19.744;2023-06-14T00:36:46;6.70;;;4.40;;
50301;SDS011;36550;50.472;19.744;2023-06-14T00:39:30;6.30;;;4.20;;
50301;SDS011;36550;50.472;19.744;2023-06-14T00:42:27;6.20;;;3.90;;
50301;SDS011;36550;50.472;19.744;2023-06-14T00:45:11;5.90;;;4.20;;
50301;SDS011;36550;50.472;19.744;2023-06-14T00:47:56;6.40;;;4.30;;
50301;SDS011;36550;50.472;19.744;2023-06-14T00:50:39;5.90;;;3.60;;
50301;SDS011;36550;50.472;19.744;2023-06-14T00:53:24;4.90;;;3.80;;
50301;SDS011;36550;50.472;19.744;2023-06-14T00:56:08;6.10;;;3.40;;
50301;SDS011;36550;50.472;19.744;2023-06-14T00:58:53;5.30;;;3.80;;
50301;SDS011;36550;50.472;19.744;2023-06-14T01:01:37;7.10;;;3.40;;
50301;SDS011;36550;50.472;19.744;2023-06-14T01:04:22;5.20;;;3.40;;
50301;SDS011;36550;50.472;19.744;2023-06-14T01:07:08;8.10;;;3.60;;
50301;SDS011;36550;50.472;19.744;2023-06-14T01:16:04;4.60;;;3.10;;
50301;SDS011;36550;50.472;19.744;2023-06-14T01:18:51;5.00;;;3.10;;
50301;SDS011;36550;50.472;19.744;2023-06-14T01:21:39;5.50;;;3.30;;
50301;SDS011;36550;50.472;19.744;2023-06-14T01:24:25;5.30;;;3.30;;
50301;SDS011;36550;50.472;19.744;2023-06-14T01:27:15;6.90;;;3.30;;
50301;SDS011;36550;50.472;19.744;2023-06-14T01:30:00;4.50;;;3.00;;
50301;SDS011;36550;50.472;19.744;2023-06-14T01:32:48;6.10;;;3.60;;
50301;SDS011;36550;50.472;19.744;2023-06-14T01:35:34;4.90;;;2.90;;
50301;SDS011;36550;50.472;19.744;2023-06-14T01:38:20;6.20;;;3.50;;
50301;SDS011;36550;50.472;19.744;2023-06-14T01:41:05;6.10;;;3.50;;
50301;SDS011;36550;50.472;19.744;2023-06-14T01:43:50;4.90;;;3.20;;
50301;SDS011;36550;50.472;19.744;2023-06-14T01:46:36;5.90;;;3.80;;
50301;SDS011;36550;50.472;19.744;2023-06-14T01:49:20;5.20;;;3.90;;
50301;SDS011;36550;50.472;19.744;2023-06-14T01:52:04;6.30;;;3.90;;
50301;SDS011;36550;50.472;19.744;2023-06-14T01:54:52;5.80;;;4.00;;
50301;SDS011;36550;50.472;19.744;2023-06-14T01:57:36;6.60;;;5.00;;
50301;SDS011;36550;50.472;19.744;2023-06-14T02:00:21;7.50;;;5.30;;
50301;SDS011;36550;50.472;19.744;2023-06-14T02:03:05;7.80;;;5.60;;
50301;SDS011;36550;50.472;19.744;2023-06-14T02:05:49;9.00;;;6.00;;
50301;SDS011;36550;50.472;19.744;2023-06-14T02:08:33;8.10;;;6.50;;
50301;SDS011;36550;50.472;19.744;2023-06-14T02:11:17;9.60;;;6.90;;
50301;SDS011;36550;50.472;19.744;2023-06-14T02:14:01;14.20;;;7.20;;
50301;SDS011;36550;50.472;19.744;2023-06-14T02:16:45;9.90;;;6.90;;
50301;SDS011;36550;50.472;19.744;2023-06-14T02:19:32;10.10;;;7.40;;
50301;SDS011;36550;50.472;19.744;2023-06-14T02:22:16;11.50;;;6.60;;
50301;SDS011;36550;50.472;19.744;2023-06-14T02:25:00;13.60;;;7.10;;
50301;SDS011;36550;50.472;19.744;2023-06-14T02:27:44;9.50;;;6.70;;
50301;SDS011;36550;50.472;19.744;2023-06-14T02:30:28;11.70;;;7.20;;
50301;SDS011;36550;50.472;19.744;2023-06-14T02:33:12;12.30;;;7.70;;
50301;SDS011;36550;50.472;19.744;2023-06-14T02:35:56;11.60;;;8.30;;
50301;SDS011;36550;50.472;19.744;2023-06-14T02:38:40;12.40;;;7.20;;
50301;SDS011;36550;50.472;19.744;2023-06-14T02:41:24;10.80;;;7.80;;
50301;SDS011;36550;50.472;19.744;2023-06-14T02:44:09;11.80;;;8.20;;
50301;SDS011;36550;50.472;19.744;2023-06-14T02:46:55;10.70;;;7.20;;
50301;SDS011;36550;50.472;19.744;2023-06-14T02:49:39;11.10;;;7.40;;
50301;SDS011;36550;50.472;19.744;2023-06-14T02:52:23;11.40;;;7.60;;
50301;SDS011;36550;50.472;19.744;2023-06-14T02:55:08;11.30;;;7.50;;
50301;SDS011;36550;50.472;19.744;2023-06-14T02:57:53;11.60;;;8.30;;
50301;SDS011;36550;50.472;19.744;2023-06-14T03:00:37;8.70;;;7.00;;
50301;SDS011;36550;50.472;19.744;2023-06-14T03:03:21;9.70;;;7.30;;
50301;SDS011;36550;50.472;19.744;2023-06-14T03:06:08;9.20;;;6.50;;
50301;SDS011;36550;50.472;19.744;2023-06-14T03:08:52;10.20;;;6.60;;
50301;SDS011;36550;50.472;19.744;2023-06-14T03:11:38;10.10;;;6.80;;
50301;SDS011;36550;50.472;19.744;2023-06-14T03:14:22;9.70;;;7.40;;
50301;SDS011;36550;50.472;19.744;2023-06-14T03:17:06;9.90;;;7.60;;
50301;SDS011;36550;50.472;19.744;2023-06-14T03:19:51;13.30;;;7.90;;
50301;SDS011;36550;50.472;19.744;2023-06-14T03:22:35;14.20;;;8.30;;
50301;SDS011;36550;50.472;19.744;2023-06-14T03:25:19;13.30;;;8.10;;
50301;SDS011;36550;50.472;19.744;2023-06-14T03:28:05;18.00;;;8.90;;
50301;SDS011;36550;50.472;19.744;2023-06-14T03:30:48;13.00;;;8.20;;
50301;SDS011;36550;50.472;19.744;2023-06-14T03:33:33;13.30;;;8.60;;
50301;SDS011;36550;50.472;19.744;2023-06-14T03:36:17;15.00;;;8.30;;
50301;SDS011;36550;50.472;19.744;2023-06-14T03:39:01;13.40;;;8.50;;
50301;SDS011;36550;50.472;19.744;2023-06-14T03:41:45;12.90;;;8.50;;
50301;SDS011;36550;50.472;19.744;2023-06-14T03:44:29;12.80;;;7.50;;
50301;SDS011;36550;50.472;19.744;2023-06-14T03:47:13;11.40;;;7.70;;
50301;SDS011;36550;50.472;19.744;2023-06-14T03:49:58;13.30;;;8.40;;
50301;SDS011;36550;50.472;19.744;2023-06-14T03:52:42;11.60;;;7.80;;
50301;SDS011;36550;50.472;19.744;2023-06-14T03:55:27;10.40;;;7.90;;
50301;SDS011;36550;50.472;19.744;2023-06-14T03:58:11;9.30;;;7.00;;
50301;SDS011;36550;50.472;19.744;2023-06-14T04:00:56;10.00;;;7.60;;
50301;SDS011;36550;50.472;19.744;2023-06-14T04:03:40;9.10;;;6.00;;
50301;SDS011;36550;50.472;19.744;2023-06-14T04:06:24;7.60;;;5.30;;
50301;SDS011;36550;50.472;19.744;2023-06-14T04:09:15;11.50;;;6.40;;
50301;SDS011;36550;50.472;19.744;2023-06-14T04:11:59;13.30;;;6.80;;
50301;SDS011;36550;50.472;19.744;2023-06-14T04:14:43;11.10;;;6.60;;
50301;SDS011;36550;50.472;19.744;2023-06-14T04:17:27;9.70;;;6.20;;
50301;SDS011;36550;50.472;19.744;2023-06-14T04:20:11;8.00;;;4.90;;
50301;SDS011;36550;50.472;19.744;2023-06-14T04:22:56;8.00;;;5.40;;
50301;SDS011;36550;50.472;19.744;2023-06-14T04:25:40;7.00;;;4.70;;
50301;SDS011;36550;50.472;19.744;2023-06-14T04:28:28;6.10;;;4.60;;
50301;SDS011;36550;50.472;19.744;2023-06-14T04:31:12;6.40;;;4.70;;
50301;SDS011;36550;50.472;19.744;2023-06-14T04:33:56;7.00;;;5.00;;
50301;SDS011;36550;50.472;19.744;2023-06-14T04:36:40;7.40;;;5.20;;
50301;SDS011;36550;50.472;19.744;2023-06-14T04:39:32;9.30;;;5.30;;
50301;SDS011;36550;50.472;19.744;2023-06-14T04:42:17;7.90;;;5.70;;
50301;SDS011;36550;50.472;19.744;2023-06-14T04:45:03;5.70;;;4.70;;
50301;SDS011;36550;50.472;19.744;2023-06-14T04:47:48;9.40;;;5.00;;
50301;SDS011;36550;50.472;19.744;2023-06-14T04:50:32;6.60;;;5.40;;
50301;SDS011;36550;50.472;19.744;2023-06-14T04:53:16;8.20;;;6.00;;
50301;SDS011;36550;50.472;19.744;2023-06-14T04:56:00;9.30;;;6.00;;
50301;SDS011;36550;50.472;19.744;2023-06-14T04:58:44;8.80;;;6.20;;
50301;SDS011;36550;50.472;19.744;2023-06-14T05:01:30;8.10;;;6.00;;
50301;SDS011;36550;50.472;19.744;2023-06-14T05:04:15;8.00;;;5.50;;
50301;SDS011;36550;50.472;19.744;2023-06-14T05:06:59;6.50;;;5.50;;
50301;SDS011;36550;50.472;19.744;2023-06-14T05:09:44;6.40;;;4.90;;
50301;SDS011;36550;50.472;19.744;2023-06-14T05:12:29;5.70;;;4.20;;
50301;SDS011;36550;50.472;19.744;2023-06-14T05:15:13;6.00;;;3.90;;
50301;SDS011;36550;50.472;19.744;2023-06-14T05:17:56;6.20;;;3.90;;
50301;SDS011;36550;50.472;19.744;2023-06-14T05:20:40;6.40;;;3.50;;
50301;SDS011;36550;50.472;19.744;2023-06-14T05:23:25;5.40;;;4.00;;
50301;SDS011;36550;50.472;19.744;2023-06-14T05:26:09;4.70;;;3.50;;
50301;SDS011;36550;50.472;19.744;2023-06-14T05:28:54;5.00;;;3.90;;
50301;SDS011;36550;50.472;19.744;2023-06-14T05:31:40;7.50;;;4.30;;
50301;SDS011;36550;50.472;19.744;2023-06-14T05:34:24;5.90;;;4.40;;
50301;SDS011;36550;50.472;19.744;2023-06-14T05:37:08;6.30;;;4.00;;
50301;SDS011;36550;50.472;19.744;2023-06-14T05:39:52;5.00;;;4.10;;
50301;SDS011;36550;50.472;19.744;2023-06-14T05:42:35;5.70;;;4.20;;
50301;SDS011;36550;50.472;19.744;2023-06-14T05:45:20;8.40;;;5.30;;
50301;SDS011;36550;50.472;19.744;2023-06-14T05:48:04;7.30;;;5.10;;
50301;SDS011;36550;50.472;19.744;2023-06-14T05:50:48;6.20;;;4.90;;
50301;SDS011;36550;50.472;19.744;2023-06-14T05:53:32;7.10;;;5.50;;
50301;SDS011;36550;50.472;19.744;2023-06-14T05:56:16;6.30;;;5.00;;
50301;SDS011;36550;50.472;19.744;2023-06-14T05:59:01;6.60;;;5.50;;
50301;SDS011;36550;50.472;19.744;2023-06-14T06:01:45;6.20;;;4.90;;
50301;SDS011;36550;50.472;19.744;2023-06-14T06:04:30;7.10;;;5.10;;
50301;SDS011;36550;50.472;19.744;2023-06-14T06:07:14;6.40;;;5.10;;
50301;SDS011;36550;50.472;19.744;2023-06-14T06:09:58;6.90;;;4.80;;
50301;SDS011;36550;50.472;19.744;2023-06-14T06:12:42;7.20;;;4.80;;
50301;SDS011;36550;50.472;19.744;2023-06-14T06:15:26;6.60;;;4.80;;
50301;SDS011;36550;50.472;19.744;2023-06-14T06:18:10;6.30;;;4.60;;
50301;SDS011;36550;50.472;19.744;2023-06-14T06:20:54;5.20;;;3.90;;
50301;SDS011;36550;50.472;19.744;2023-06-14T06:23:39;5.80;;;4.60;;
50301;SDS011;36550;50.472;19.744;2023-06-14T06:26:23;6.20;;;4.30;;
50301;SDS011;36550;50.472;19.744;2023-06-14T06:29:07;5.90;;;3.80;;
50301;SDS011;36550;50.472;19.744;2023-06-14T06:31:50;6.70;;;4.10;;
50301;SDS011;36550;50.472;19.744;2023-06-14T06:34:35;5.70;;;4.40;;
50301;SDS011;36550;50.472;19.744;2023-06-14T06:37:19;6.70;;;4.40;;
50301;SDS011;36550;50.472;19.744;2023-06-14T06:40:03;6.60;;;4.70;;
50301;SDS011;36550;50.472;19.744;2023-06-14T06:42:49;5.50;;;4.50;;
50301;SDS011;36550;50.472;19.744;2023-06-14T06:45:33;6.70;;;4.40;;
50301;SDS011;36550;50.472;19.744;2023-06-14T06:48:17;6.30;;;4.80;;
50301;SDS011;36550;50.472;19.744;2023-06-14T06:51:01;5.80;;;4.80;;
50301;SDS011;36550;50.472;19.744;2023-06-14T06:53:51;7.10;;;5.30;;
50301;SDS011;36550;50.472;19.744;2023-06-14T06:56:36;6.80;;;5.30;;
50301;SDS011;36550;50.472;19.744;2023-06-14T06:59:20;7.70;;;5.70;;
50301;SDS011;36550;50.472;19.744;2023-06-14T07:02:04;6.40;;;5.20;;
50301;SDS011;36550;50.472;19.744;2023-06-14T07:04:49;5.80;;;5.10;;
50301;SDS011;36550;50.472;19.744;2023-06-14T07:07:33;7.50;;;5.20;;
50301;SDS011;36550;50.472;19.744;2023-06-14T07:10:18;7.30;;;6.00;;
50301;SDS011;36550;50.472;19.744;2023-06-14T07:13:02;9.10;;;5.70;;
50301;SDS011;36550;50.472;19.744;2023-06-14T07:15:47;7.50;;;4.90;;
50301;SDS011;36550;50.472;19.744;2023-06-14T07:18:31;7.60;;;4.90;;
50301;SDS011;36550;50.472;19.744;2023-06-14T07:21:15;8.80;;;6.00;;
50301;SDS011;36550;50.472;19.744;2023-06-14T07:23:59;6.80;;;5.10;;
50301;SDS011;36550;50.472;19.744;2023-06-14T07:26:43;7.00;;;4.70;;
50301;SDS011;36550;50.472;19.744;2023-06-14T07:29:26;7.60;;;5.10;;
50301;SDS011;36550;50.472;19.744;2023-06-14T07:32:10;8.30;;;6.00;;
50301;SDS011;36550;50.472;19.744;2023-06-14T07:34:55;7.30;;;5.40;;
50301;SDS011;36550;50.472;19.744;2023-06-14T07:37:38;7.30;;;5.90;;
50301;SDS011;36550;50.472;19.744;2023-06-14T07:40:22;8.80;;;7.10;;
50301;SDS011;36550;50.472;19.744;2023-06-14T07:43:06;9.70;;;7.60;;
50301;SDS011;36550;50.472;19.744;2023-06-14T07:45:50;11.20;;;7.30;;
50301;SDS011;36550;50.472;19.744;2023-06-14T07:48:34;11.20;;;8.90;;
50301;SDS011;36550;50.472;19.744;2023-06-14T07:51:19;11.60;;;8.20;;
50301;SDS011;36550;50.472;19.744;2023-06-14T07:54:03;10.40;;;7.70;;
50301;SDS011;36550;50.472;19.744;2023-06-14T07:56:47;10.90;;;8.50;;
50301;SDS011;36550;50.472;19.744;2023-06-14T07:59:31;11.50;;;10.00;;
50301;SDS011;36550;50.472;19.744;2023-06-14T08:02:15;15.00;;;9.20;;
50301;SDS011;36550;50.472;19.744;2023-06-14T08:05:00;13.60;;;9.20;;
50301;SDS011;36550;50.472;19.744;2023-06-14T08:07:44;14.90;;;10.40;;
50301;SDS011;36550;50.472;19.744;2023-06-14T08:10:28;12.70;;;9.80;;
50301;SDS011;36550;50.472;19.744;2023-06-14T08:13:12;13.30;;;9.80;;
50301;SDS011;36550;50.472;19.744;2023-06-14T08:15:56;14.60;;;10.50;;
50301;SDS011;36550;50.472;19.744;2023-06-14T08:18:40;18.80;;;9.30;;
50301;SDS011;36550;50.472;19.744;2023-06-14T08:21:25;16.10;;;9.80;;
50301;SDS011;36550;50.472;19.744;2023-06-14T08:24:11;11.80;;;9.30;;
50301;SDS011;36550;50.472;19.744;2023-06-14T08:26:57;15.50;;;9.60;;
50301;SDS011;36550;50.472;19.744;2023-06-14T08:29:41;14.00;;;10.00;;
50301;SDS011;36550;50.472;19.744;2023-06-14T08:32:25;11.80;;;9.10;;
50301;SDS011;36550;50.472;19.744;2023-06-14T08:35:09;15.10;;;9.10;;
50301;SDS011;36550;50.472;19.744;2023-06-14T08:37:53;14.70;;;9.80;;
50301;SDS011;36550;50.472;19.744;2023-06-14T08:40:37;14.50;;;9.40;;
50301;SDS011;36550;50.472;19.744;2023-06-14T08:43:24;14.70;;;10.20;;
50301;SDS011;36550;50.472;19.744;2023-06-14T08:46:08;13.00;;;9.70;;
50301;SDS011;36550;50.472;19.744;2023-06-14T08:48:55;13.10;;;9.80;;
50301;SDS011;36550;50.472;19.744;2023-06-14T08:51:40;14.10;;;10.30;;
50301;SDS011;36550;50.472;19.744;2023-06-14T08:54:25;15.20;;;10.00;;
50301;SDS011;36550;50.472;19.744;2023-06-14T08:57:12;13.70;;;10.50;;
50301;SDS011;36550;50.472;19.744;2023-06-14T08:59:58;15.20;;;9.20;;
50301;SDS011;36550;50.472;19.744;2023-06-14T09:02:48;17.20;;;9.80;;
50301;SDS011;36550;50.472;19.744;2023-06-14T09:05:31;13.50;;;9.50;;
50301;SDS011;36550;50.472;19.744;2023-06-14T09:08:15;13.30;;;8.80;;
50301;SDS011;36550;50.472;19.744;2023-06-14T09:11:00;10.40;;;8.30;;
50301;SDS011;36550;50.472;19.744;2023-06-14T09:13:45;11.20;;;8.50;;
50301;SDS011;36550;50.472;19.744;2023-06-14T09:16:32;12.50;;;8.60;;
50301;SDS011;36550;50.472;19.744;2023-06-14T09:19:25;12.90;;;7.80;;
50301;SDS011;36550;50.472;19.744;2023-06-14T09:22:10;10.90;;;7.50;;
50301;SDS011;36550;50.472;19.744;2023-06-14T09:24:55;11.90;;;7.60;;
50301;SDS011;36550;50.472;19.744;2023-06-14T09:27:39;10.60;;;6.80;;
50301;SDS011;36550;50.472;19.744;2023-06-14T09:30:24;10.00;;;7.30;;
50301;SDS011;36550;50.472;19.744;2023-06-14T09:33:08;9.40;;;7.40;;
50301;SDS011;36550;50.472;19.744;2023-06-14T09:35:52;10.50;;;7.30;;
50301;SDS011;36550;50.472;19.744;2023-06-14T09:38:39;10.20;;;7.10;;
50301;SDS011;36550;50.472;19.744;2023-06-14T09:41:32;9.00;;;6.80;;
50301;SDS011;36550;50.472;19.744;2023-06-14T09:44:16;9.90;;;7.30;;
50301;SDS011;36550;50.472;19.744;2023-06-14T09:47:02;10.50;;;7.20;;
50301;SDS011;36550;50.472;19.744;2023-06-14T09:49:47;11.20;;;7.60;;
50301;SDS011;36550;50.472;19.744;2023-06-14T09:52:31;12.40;;;8.40;;
50301;SDS011;36550;50.472;19.744;2023-06-14T09:55:16;11.40;;;7.70;;
50301;SDS011;36550;50.472;19.744;2023-06-14T09:58:01;11.90;;;8.10;;
50301;SDS011;36550;50.472;19.744;2023-06-14T10:00:49;13.10;;;7.10;;
50301;SDS011;36550;50.472;19.744;2023-06-14T10:03:35;9.60;;;7.40;;
50301;SDS011;36550;50.472;19.744;2023-06-14T10:06:22;9.10;;;7.30;;
50301;SDS011;36550;50.472;19.744;2023-06-14T10:09:08;12.60;;;6.90;;
50301;SDS011;36550;50.472;19.744;2023-06-14T10:14:38;10.50;;;7.60;;
50301;SDS011;36550;50.472;19.744;2023-06-14T10:20:39;9.90;;;7.60;;
50301;SDS011;36550;50.472;19.744;2023-06-14T10:23:35;11.40;;;7.60;;
50301;SDS011;36550;50.472;19.744;2023-06-14T10:26:22;9.00;;;7.00;;
50301;SDS011;36550;50.472;19.744;2023-06-14T10:29:07;9.90;;;7.80;;
50301;SDS011;36550;50.472;19.744;2023-06-14T10:31:56;11.20;;;8.10;;
50301;SDS011;36550;50.472;19.744;2023-06-14T10:34:41;8.70;;;7.50;;
50301;SDS011;36550;50.472;19.744;2023-06-14T10:37:25;8.80;;;7.70;;
50301;SDS011;36550;50.472;19.744;2023-06-14T10:40:14;10.60;;;7.20;;
50301;SDS011;36550;50.472;19.744;2023-06-14T10:43:20;10.40;;;6.60;;
50301;SDS011;36550;50.472;19.744;2023-06-14T10:49:06;9.60;;;6.50;;
50301;SDS011;36550;50.472;19.744;2023-06-14T10:51:53;7.20;;;6.20;;
50301;SDS011;36550;50.472;19.744;2023-06-14T10:54:55;7.40;;;5.70;;
50301;SDS011;36550;50.472;19.744;2023-06-14T10:57:55;9.10;;;5.40;;
50301;SDS011;36550;50.472;19.744;2023-06-14T11:00:40;6.90;;;4.10;;
50301;SDS011;36550;50.472;19.744;2023-06-14T11:03:36;9.60;;;4.90;;
50301;SDS011;36550;50.472;19.744;2023-06-14T11:06:52;6.50;;;4.20;;
50301;SDS011;36550;50.472;19.744;2023-06-14T11:13:23;8.80;;;5.40;;
50301;SDS011;36550;50.472;19.744;2023-06-14T11:16:15;7.10;;;5.70;;
50301;SDS011;36550;50.472;19.744;2023-06-14T11:19:02;8.60;;;5.20;;
50301;SDS011;36550;50.472;19.744;2023-06-14T11:21:49;11.30;;;5.70;;
50301;SDS011;36550;50.472;19.744;2023-06-14T11:24:34;6.50;;;5.40;;
50301;SDS011;36550;50.472;19.744;2023-06-14T11:27:18;10.70;;;6.10;;
50301;SDS011;36550;50.472;19.744;2023-06-14T11:30:02;5.90;;;4.70;;
50301;SDS011;36550;50.472;19.744;2023-06-14T11:32:47;6.30;;;4.30;;
50301;SDS011;36550;50.472;19.744;2023-06-14T11:35:35;6.20;;;4.50;;
50301;SDS011;36550;50.472;19.744;2023-06-14T11:38:19;4.20;;;3.70;;
50301;SDS011;36550;50.472;19.744;2023-06-14T11:41:03;5.40;;;4.10;;
50301;SDS011;36550;50.472;19.744;2023-06-14T11:43:47;7.50;;;4.30;;
50301;SDS011;36550;50.472;19.744;2023-06-14T11:46:31;7.20;;;4.70;;
50301;SDS011;36550;50.472;19.744;2023-06-14T11:49:15;5.30;;;4.20;;
50301;SDS011;36550;50.472;19.744;2023-06-14T11:51:59;7.00;;;4.70;;
50301;SDS011;36550;50.472;19.744;2023-06-14T11:54:44;7.20;;;5.20;;
50301;SDS011;36550;50.472;19.744;2023-06-14T11:57:34;5.80;;;4.80;;
50301;SDS011;36550;50.472;19.744;2023-06-14T12:00:25;7.70;;;5.20;;
50301;SDS011;36550;50.472;19.744;2023-06-14T12:03:11;7.70;;;5.30;;
50301;SDS011;36550;50.472;19.744;2023-06-14T12:06:04;6.40;;;5.50;;
50301;SDS011;36550;50.472;19.744;2023-06-14T12:08:55;7.60;;;5.90;;
50301;SDS011;36550;50.472;19.744;2023-06-14T12:11:40;9.20;;;5.70;;
50301;SDS011;36550;50.472;19.744;2023-06-14T12:14:30;9.60;;;6.00;;
50301;SDS011;36550;50.472;19.744;2023-06-14T12:17:16;9.10;;;5.80;;
50301;SDS011;36550;50.472;19.744;2023-06-14T12:20:19;7.50;;;5.80;;
50301;SDS011;36550;50.472;19.744;2023-06-14T12:23:05;6.80;;;6.00;;
50301;SDS011;36550;50.472;19.744;2023-06-14T12:25:49;7.30;;;6.10;;
50301;SDS011;36550;50.472;19.744;2023-06-14T12:31:20;10.90;;;6.30;;
50301;SDS011;36550;50.472;19.744;2023-06-14T12:34:04;7.20;;;5.80;;
50301;SDS011;36550;50.472;19.744;2023-06-14T12:36:49;7.90;;;6.30;;
50301;SDS011;36550;50.472;19.744;2023-06-14T12:39:34;9.10;;;6.20;;
50301;SDS011;36550;50.472;19.744;2023-06-14T12:42:19;7.70;;;6.20;;
50301;SDS011;36550;50.472;19.744;2023-06-14T12:45:03;10.40;;;6.50;;
50301;SDS011;36550;50.472;19.744;2023-06-14T12:47:48;10.00;;;6.90;;
50301;SDS011;36550;50.472;19.744;2023-06-14T12:50:33;10.40;;;6.50;;
50301;SDS011;36550;50.472;19.744;2023-06-14T12:53:17;7.90;;;6.20;;
50301;SDS011;36550;50.472;19.744;2023-06-14T12:56:04;10.00;;;6.60;;
50301;SDS011;36550;50.472;19.744;2023-06-14T12:58:49;9.70;;;6.40;;
50301;SDS011;36550;50.472;19.744;2023-06-14T13:01:33;7.80;;;6.60;;
50301;SDS011;36550;50.472;19.744;2023-06-14T13:04:18;7.40;;;5.90;;
50301;SDS011;36550;50.472;19.744;2023-06-14T13:07:02;9.90;;;5.40;;
50301;SDS011;36550;50.472;19.744;2023-06-14T13:09:46;6.70;;;5.60;;
50301;SDS011;36550;50.472;19.744;2023-06-14T13:12:31;8.50;;;5.00;;
50301;SDS011;36550;50.472;19.744;2023-06-14T13:15:15;9.20;;;5.80;;
50301;SDS011;36550;50.472;19.744;2023-06-14T13:17:59;8.20;;;4.50;;
50301;SDS011;36550;50.472;19.744;2023-06-14T13:20:45;6.10;;;4.80;;
50301;SDS011;36550;50.472;19.744;2023-06-14T13:23:30;6.00;;;4.20;;
50301;SDS011;36550;50.472;19.744;2023-06-14T13:26:14;5.20;;;3.40;;
50301;SDS011;36550;50.472;19.744;2023-06-14T13:28:59;5.70;;;3.30;;
50301;SDS011;36550;50.472;19.744;2023-06-14T13:31:44;5.00;;;3.40;;
50301;SDS011;36550;50.472;19.744;2023-06-14T13:34:29;8.30;;;4.00;;
50301;SDS011;36550;50.472;19.744;2023-06-14T13:37:13;4.90;;;3.80;;
50301;SDS011;36550;50.472;19.744;2023-06-14T13:39:58;7.00;;;3.60;;
50301;SDS011;36550;50.472;19.744;2023-06-14T13:42:43;5.60;;;4.20;;
50301;SDS011;36550;50.472;19.744;2023-06-14T13:45:27;5.30;;;4.10;;
50301;SDS011;36550;50.472;19.744;2023-06-14T13:48:11;7.40;;;4.20;;
50301;SDS011;36550;50.472;19.744;2023-06-14T13:50:56;8.20;;;4.40;;
50301;SDS011;36550;50.472;19.744;2023-06-14T13:53:41;8.50;;;4.00;;
50301;SDS011;36550;50.472;19.744;2023-06-14T13:56:25;5.40;;;4.20;;
50301;SDS011;36550;50.472;19.744;2023-06-14T13:59:10;5.60;;;3.70;;
50301;SDS011;36550;50.472;19.744;2023-06-14T14:01:54;5.60;;;4.10;;
50301;SDS011;36550;50.472;19.744;2023-06-14T14:04:39;7.80;;;3.90;;
50301;SDS011;36550;50.472;19.744;2023-06-14T14:07:24;5.60;;;3.60;;
50301;SDS011;36550;50.472;19.744;2023-06-14T14:10:08;5.30;;;3.70;;
50301;SDS011;36550;50.472;19.744;2023-06-14T14:12:54;6.20;;;3.70;;
50301;SDS011;36550;50.472;19.744;2023-06-14T14:15:40;6.00;;;4.30;;
50301;SDS011;36550;50.472;19.744;2023-06-14T14:18:24;6.90;;;4.40;;
50301;SDS011;36550;50.472;19.744;2023-06-14T14:21:09;7.00;;;4.70;;
50301;SDS011;36550;50.472;19.744;2023-06-14T14:23:54;6.90;;;4.20;;
50301;SDS011;36550;50.472;19.744;2023-06-14T14:26:39;7.20;;;4.70;;
50301;SDS011;36550;50.472;19.744;2023-06-14T14:29:24;18.30;;;9.40;;
50301;SDS011;36550;50.472;19.744;2023-06-14T14:32:14;19.80;;;11.40;;
50301;SDS011;36550;50.472;19.744;2023-06-14T14:34:58;9.90;;;6.00;;
50301;SDS011;36550;50.472;19.744;2023-06-14T14:37:43;9.10;;;4.70;;
50301;SDS011;36550;50.472;19.744;2023-06-14T14:40:28;9.40;;;5.00;;
50301;SDS011;36550;50.472;19.744;2023-06-14T14:43:13;7.10;;;4.30;;
50301;SDS011;36550;50.472;19.744;2023-06-14T14:45:58;10.80;;;4.20;;
50301;SDS011;36550;50.472;19.744;2023-06-14T14:48:42;15.30;;;6.60;;
50301;SDS011;36550;50.472;19.744;2023-06-14T14:51:27;14.70;;;8.90;;
50301;SDS011;36550;50.472;19.744;2023-06-14T14:54:11;13.70;;;8.00;;
50301;SDS011;36550;50.472;19.744;2023-06-14T14:56:56;13.00;;;7.70;;
50301;SDS011;36550;50.472;19.744;2023-06-14T14:59:40;10.30;;;6.70;;
50301;SDS011;36550;50.472;19.744;2023-06-14T15:02:25;15.10;;;8.20;;
50301;SDS011;36550;50.472;19.744;2023-06-14T15:05:09;9.50;;;6.40;;
50301;SDS011;36550;50.472;19.744;2023-06-14T15:07:54;9.80;;;6.80;;
50301;SDS011;36550;50.472;19.744;2023-06-14T15:10:39;9.40;;;6.10;;
50301;SDS011;36550;50.472;19.744;2023-06-14T15:13:25;8.30;;;4.90;;
50301;SDS011;36550;50.472;19.744;2023-06-14T15:16:12;6.50;;;5.40;;
50301;SDS011;36550;50.472;19.744;2023-06-14T15:18:57;8.30;;;5.10;;
50301;SDS011;36550;50.472;19.744;2023-06-14T15:21:41;10.50;;;5.60;;
50301;SDS011;36550;50.472;19.744;2023-06-14T15:24:25;6.80;;;5.20;;
50301;SDS011;36550;50.472;19.744;2023-06-14T15:27:13;11.00;;;6.30;;
50301;SDS011;36550;50.472;19.744;2023-06-14T15:29:57;6.90;;;5.00;;
50301;SDS011;36550;50.472;19.744;2023-06-14T15:32:42;6.70;;;5.20;;
50301;SDS011;36550;50.472;19.744;2023-06-14T15:35:26;9.30;;;5.20;;
50301;SDS011;36550;50.472;19.744;2023-06-14T15:38:10;5.90;;;4.90;;
50301;SDS011;36550;50.472;19.744;2023-06-14T15:40:55;7.90;;;4.80;;
50301;SDS011;36550;50.472;19.744;2023-06-14T15:43:39;6.40;;;4.50;;
50301;SDS011;36550;50.472;19.744;2023-06-14T15:46:24;9.50;;;5.60;;
50301;SDS011;36550;50.472;19.744;2023-06-14T15:49:08;8.80;;;5.70;;
50301;SDS011;36550;50.472;19.744;2023-06-14T15:51:54;7.00;;;5.30;;
50301;SDS011;36550;50.472;19.744;2023-06-14T15:54:40;8.40;;;5.20;;
50301;SDS011;36550;50.472;19.744;2023-06-14T15:57:24;10.30;;;5.70;;
50301;SDS011;36550;50.472;19.744;2023-06-14T16:00:09;12.30;;;6.00;;
50301;SDS011;36550;50.472;19.744;2023-06-14T16:02:54;9.90;;;5.80;;
50301;SDS011;36550;50.472;19.744;2023-06-14T16:05:39;9.10;;;5.60;;
50301;SDS011;36550;50.472;19.744;2023-06-14T16:08:23;8.70;;;5.50;;
50301;SDS011;36550;50.472;19.744;2023-06-14T16:11:08;14.10;;;5.40;;
50301;SDS011;36550;50.472;19.744;2023-06-14T16:13:53;9.60;;;5.20;;
50301;SDS011;36550;50.472;19.744;2023-06-14T16:16:39;7.10;;;5.40;;
50301;SDS011;36550;50.472;19.744;2023-06-14T16:19:25;8.00;;;5.20;;
50301;SDS011;36550;50.472;19.744;2023-06-14T16:22:09;7.60;;;5.90;;
50301;SDS011;36550;50.472;19.744;2023-06-14T16:24:54;8.20;;;5.70;;
50301;SDS011;36550;50.472;19.744;2023-06-14T16:27:40;9.30;;;5.50;;
50301;SDS011;36550;50.472;19.744;2023-06-14T16:30:25;7.30;;;4.90;;
50301;SDS011;36550;50.472;19.744;2023-06-14T16:33:10;10.20;;;6.20;;
50301;SDS011;36550;50.472;19.744;2023-06-14T16:35:55;10.10;;;5.50;;
50301;SDS011;36550;50.472;19.744;2023-06-14T16:38:40;8.80;;;5.50;;